createdAt,value
2022-12-01T00:00:03.938Z,11.70
2022-12-01T00:05:10.633Z,11.45
2022-12-01T00:10:29.897Z,11.77
2022-12-01T00:15:36.222Z,12.55
2022-12-01T00:20:41.987Z,11.47
2022-12-01T00:25:45.913Z,11.25
2022-12-01T00:30:55.443Z,10.82
2022-12-01T00:36:02.343Z,11.25
2022-12-01T00:41:09.846Z,10.93
2022-12-01T00:46:14.502Z,12.70
2022-12-01T00:51:20.189Z,11.93
2022-12-01T00:56:24.253Z,12.90
2022-12-01T01:01:28.596Z,12.32
2022-12-01T01:06:34.295Z,12.60
2022-12-01T01:11:39.136Z,13.02
2022-12-01T01:16:43.512Z,11.10
2022-12-01T01:21:50.850Z,12.38
2022-12-01T01:26:55.451Z,11.85
2022-12-01T01:31:59.628Z,12.45
2022-12-01T01:37:05.158Z,11.95
2022-12-01T01:42:11.795Z,13.88
2022-12-01T01:47:16.402Z,12.85
2022-12-01T01:52:23.877Z,12.90
2022-12-01T01:57:32.193Z,12.18
2022-12-01T02:02:40.940Z,13.40
2022-12-01T02:07:47.740Z,13.20
2022-12-01T02:13:13.191Z,12.32
2022-12-01T02:18:26.104Z,12.75
2022-12-01T02:24:06.849Z,13.32
2022-12-01T02:29:38.783Z,12.65
2022-12-01T02:34:52.131Z,13.23
2022-12-01T02:39:59.933Z,12.68
2022-12-01T02:45:08.965Z,12.02
2022-12-01T02:50:17.921Z,12.90
2022-12-01T02:55:22.224Z,13.07
2022-12-01T03:00:32.601Z,13.20
2022-12-01T03:05:49.401Z,12.93
2022-12-01T03:10:56.319Z,12.10
2022-12-01T03:16:04.346Z,12.57
2022-12-01T03:21:12.740Z,13.05
2022-12-01T03:26:25.623Z,12.38
2022-12-01T03:31:34.431Z,12.50
2022-12-01T03:36:43.689Z,12.63
2022-12-01T03:41:53.172Z,13.50
2022-12-01T03:47:00.935Z,12.93
2022-12-01T03:52:17.712Z,13.52
2022-12-01T03:57:30.884Z,13.50
2022-12-01T04:02:34.811Z,13.13
2022-12-01T04:07:41.713Z,12.48
2022-12-01T04:12:46.413Z,13.60
2022-12-01T04:17:51.248Z,12.52
2022-12-01T04:22:59.808Z,13.00
2022-12-01T04:28:03.833Z,12.88
2022-12-01T04:33:07.986Z,14.18
2022-12-01T04:38:13.321Z,13.48
2022-12-01T04:43:19.530Z,12.27
2022-12-01T04:48:23.469Z,12.53
2022-12-01T04:53:32.947Z,13.55
2022-12-01T04:58:40.070Z,12.88
2022-12-01T05:08:50.534Z,13.20
2022-12-01T05:13:54.419Z,14.05
2022-12-01T05:19:14.010Z,13.48
2022-12-01T05:24:20.771Z,13.07
2022-12-01T05:29:25.490Z,13.30
2022-12-01T05:34:31.675Z,13.85
2022-12-01T05:39:36.888Z,13.40
2022-12-01T05:44:41.055Z,13.30
2022-12-01T05:49:45.052Z,15.32
2022-12-01T05:54:50.867Z,13.80
2022-12-01T05:59:54.964Z,13.10
2022-12-01T06:04:59.518Z,14.95
2022-12-01T06:10:07.148Z,15.23
2022-12-01T06:15:17.504Z,13.85
2022-12-01T06:20:21.713Z,14.05
2022-12-01T06:25:26.994Z,12.18
2022-12-01T06:30:34.104Z,14.10
2022-12-01T06:40:46.891Z,13.15
2022-12-01T06:45:52.422Z,13.77
2022-12-01T06:50:59.431Z,13.80
2022-12-01T06:56:06.592Z,13.77
2022-12-01T07:01:12.318Z,13.15
2022-12-01T07:06:18.857Z,14.52
2022-12-01T07:11:24.397Z,14.13
2022-12-01T07:16:31.329Z,15.00
2022-12-01T07:21:35.324Z,14.40
2022-12-01T07:26:41.601Z,14.57
2022-12-01T07:31:53.810Z,14.23
2022-12-01T07:37:01.298Z,15.57
2022-12-01T07:42:09.565Z,14.93
2022-12-01T07:47:13.565Z,14.25
2022-12-01T07:52:30.232Z,15.27
2022-12-01T07:57:45.515Z,14.85
2022-12-01T08:02:52.995Z,15.00
2022-12-01T08:08:12.034Z,15.07
2022-12-01T08:13:26.356Z,15.48
2022-12-01T08:18:36.250Z,14.93
2022-12-01T08:23:41.783Z,14.80
2022-12-01T08:28:55.203Z,14.32
2022-12-01T08:34:08.511Z,13.70
2022-12-01T08:39:19.366Z,14.65
2022-12-01T08:44:29.704Z,13.68
2022-12-01T08:49:35.334Z,15.27
2022-12-01T08:54:39.848Z,14.95
2022-12-01T09:00:05.866Z,14.93
2022-12-01T09:05:21.277Z,14.75
2022-12-01T09:10:25.270Z,14.70
2022-12-01T09:15:36.487Z,14.35
2022-12-01T09:20:40.560Z,15.00
2022-12-01T09:25:44.461Z,15.05
2022-12-01T09:30:50.091Z,15.45
2022-12-01T09:36:00.970Z,14.90
2022-12-01T09:41:12.597Z,15.27
2022-12-01T09:46:25.992Z,15.15
2022-12-01T09:51:36.350Z,15.82
2022-12-01T09:56:45.739Z,14.48
2022-12-01T10:01:56.938Z,14.15
2022-12-01T10:07:04.713Z,16.15
2022-12-01T10:12:23.980Z,14.82
2022-12-01T10:17:35.044Z,15.15
2022-12-01T10:23:15.556Z,15.30
2022-12-01T10:28:40.727Z,15.02
2022-12-01T10:33:59.595Z,15.10
2022-12-01T10:39:21.186Z,15.32
2022-12-01T10:44:25.573Z,16.23
2022-12-01T10:49:42.520Z,14.73
2022-12-01T10:54:46.788Z,16.08
2022-12-01T10:59:54.040Z,15.27
2022-12-01T11:10:15.831Z,17.27
2022-12-01T11:15:24.366Z,15.98
2022-12-01T11:20:44.253Z,16.80
2022-12-01T11:25:59.374Z,16.35
2022-12-01T11:31:06.621Z,15.10
2022-12-01T11:36:23.703Z,15.63
2022-12-01T11:46:50.168Z,15.95
2022-12-01T11:52:19.150Z,16.90
2022-12-01T11:57:34.194Z,15.68
2022-12-01T12:03:08.264Z,16.02
2022-12-01T12:08:28.847Z,14.45
2022-12-01T12:13:46.109Z,14.23
2022-12-01T12:19:03.312Z,15.05
2022-12-01T12:24:37.890Z,14.80
2022-12-01T12:29:56.456Z,15.57
2022-12-01T12:35:10.397Z,16.17
2022-12-01T12:40:34.766Z,15.65
2022-12-01T12:45:50.624Z,14.80
2022-12-01T12:56:08.387Z,15.93
2022-12-01T13:01:20.437Z,14.00
2022-12-01T13:06:31.194Z,14.18
2022-12-01T13:11:45.423Z,14.13
2022-12-01T13:16:55.169Z,15.40
2022-12-01T13:22:01.305Z,14.48
2022-12-01T13:27:16.967Z,14.55
2022-12-01T13:32:37.972Z,14.38
2022-12-01T13:37:42.875Z,14.25
2022-12-01T13:42:56.975Z,15.32
2022-12-01T13:48:04.718Z,15.93
2022-12-01T13:53:14.033Z,15.75
2022-12-01T13:58:42.185Z,16.38
2022-12-01T14:03:56.972Z,15.63
2022-12-01T14:09:03.418Z,15.55
2022-12-01T14:14:24.205Z,16.40
2022-12-01T14:19:36.942Z,17.40
2022-12-01T14:24:43.859Z,16.00
2022-12-01T14:29:49.589Z,15.73
2022-12-01T14:35:02.508Z,16.45
2022-12-01T14:40:22.509Z,14.32
2022-12-01T14:45:35.303Z,15.15
2022-12-01T14:50:46.894Z,14.70
2022-12-01T14:55:57.613Z,14.40
2022-12-01T15:01:09.200Z,15.10
2022-12-01T15:06:21.508Z,14.32
2022-12-01T15:11:26.911Z,16.00
2022-12-01T15:16:33.514Z,15.02
2022-12-01T15:21:44.138Z,14.27
2022-12-01T15:27:03.722Z,14.68
2022-12-01T15:32:14.671Z,15.07
2022-12-01T15:37:24.400Z,15.27
2022-12-01T15:42:30.598Z,14.77
2022-12-01T15:47:47.248Z,16.20
2022-12-01T15:52:51.941Z,14.10
2022-12-01T15:57:57.506Z,16.10
2022-12-01T16:03:05.259Z,15.43
2022-12-01T16:08:20.199Z,16.63
2022-12-01T16:13:45.558Z,15.38
2022-12-01T16:18:56.740Z,17.17
2022-12-01T16:24:04.550Z,16.48
2022-12-01T16:29:22.153Z,16.65
2022-12-01T16:34:45.325Z,17.35
2022-12-01T16:39:53.104Z,16.65
2022-12-01T16:44:57.150Z,16.80
2022-12-01T16:50:03.028Z,16.50
2022-12-01T16:55:29.757Z,16.43
2022-12-01T17:00:34.095Z,17.63
2022-12-01T17:05:40.253Z,18.60
2022-12-01T17:10:48.418Z,17.03
2022-12-01T17:16:01.073Z,16.95
2022-12-01T17:21:12.028Z,17.02
2022-12-01T17:26:18.423Z,16.52
2022-12-01T17:31:23.051Z,16.70
2022-12-01T17:36:28.676Z,17.33
2022-12-01T17:41:35.799Z,16.25
2022-12-01T17:46:42.894Z,17.75
2022-12-01T17:51:50.607Z,16.63
2022-12-01T17:56:57.976Z,17.75
2022-12-01T18:02:17.257Z,17.65
2022-12-01T18:07:22.861Z,17.98
2022-12-01T18:12:26.829Z,17.73
2022-12-01T18:17:31.052Z,16.77
2022-12-01T18:22:36.513Z,16.80
2022-12-01T18:27:40.687Z,16.45
2022-12-01T18:32:44.846Z,16.15
2022-12-01T18:37:51.532Z,16.27
2022-12-01T18:48:20.178Z,16.83
2022-12-01T18:53:26.827Z,17.13
2022-12-01T18:58:31.216Z,15.95
2022-12-01T19:03:34.988Z,17.13
2022-12-01T19:08:41.271Z,16.55
2022-12-01T19:13:45.672Z,17.52
2022-12-01T19:18:50.144Z,16.10
2022-12-01T19:23:58.289Z,15.65
2022-12-01T19:29:03.068Z,16.88
2022-12-01T19:34:07.667Z,17.80
2022-12-01T19:39:13.017Z,16.75
2022-12-01T19:44:17.121Z,16.35
2022-12-01T19:49:21.131Z,15.80
2022-12-01T19:54:28.577Z,17.10
2022-12-01T19:59:33.109Z,16.77
2022-12-01T20:04:38.813Z,18.17
2022-12-01T20:09:48.426Z,16.98
2022-12-01T20:14:54.104Z,17.27
2022-12-01T20:19:58.145Z,15.98
2022-12-01T20:25:04.450Z,18.48
2022-12-01T20:30:10.389Z,17.17
2022-12-01T20:35:15.693Z,15.63
2022-12-01T20:40:23.171Z,17.13
2022-12-01T20:45:27.349Z,16.63
2022-12-01T20:50:31.558Z,17.20
2022-12-01T20:55:37.995Z,17.05
2022-12-01T21:00:44.314Z,17.80
2022-12-01T21:05:50.524Z,18.07
2022-12-01T21:10:55.870Z,17.33
2022-12-01T21:16:04.931Z,16.77
2022-12-01T21:21:25.567Z,16.27
2022-12-01T21:26:35.578Z,17.60
2022-12-01T21:31:39.493Z,17.15
2022-12-01T21:36:45.897Z,16.80
2022-12-01T21:41:54.022Z,17.53
2022-12-01T21:47:17.348Z,16.98
2022-12-01T21:52:25.119Z,16.42
2022-12-01T21:57:43.135Z,18.25
2022-12-01T22:02:51.089Z,17.45
2022-12-01T22:08:00.806Z,17.15
2022-12-01T22:13:10.947Z,17.05
2022-12-01T22:18:23.156Z,17.83
2022-12-01T22:23:34.393Z,17.27
2022-12-01T22:28:39.623Z,16.25
2022-12-01T22:33:43.647Z,17.90
2022-12-01T22:38:47.607Z,17.15
2022-12-01T22:43:57.324Z,16.90
2022-12-01T22:49:03.789Z,16.90
2022-12-01T22:54:27.565Z,16.60
2022-12-01T22:59:37.444Z,16.67
2022-12-01T23:04:44.602Z,17.55
2022-12-01T23:14:55.494Z,16.55
2022-12-01T23:20:17.432Z,16.42
2022-12-01T23:25:23.310Z,17.65
2022-12-01T23:30:29.296Z,16.92
2022-12-01T23:35:37.367Z,16.60
2022-12-01T23:40:41.446Z,17.75
2022-12-01T23:45:47.721Z,17.70
2022-12-01T23:50:54.391Z,17.47
2022-12-01T23:56:01.827Z,17.70
